sensor_id;sensor_type;location;lat;lon;timestamp;P1;durP1;ratioP1;P2;durP2;ratioP2
55148;SDS011;49539;48.160;11.530;2023-08-31T00:02:15;2.90;;;1.70;;
55148;SDS011;49539;48.160;11.530;2023-08-31T00:04:40;2.40;;;1.40;;
55148;SDS011;49539;48.160;11.530;2023-08-31T00:07:05;2.67;;;1.70;;
55148;SDS011;49539;48.160;11.530;2023-08-31T00:09:32;2.40;;;1.60;;
55148;SDS011;49539;48.160;11.530;2023-08-31T00:11:57;2.45;;;1.60;;
55148;SDS011;49539;48.160;11.530;2023-08-31T00:14:23;2.55;;;1.63;;
55148;SDS011;49539;48.160;11.530;2023-08-31T00:16:49;4.95;;;1.70;;
55148;SDS011;49539;48.160;11.530;2023-08-31T00:19:15;2.92;;;1.75;;
55148;SDS011;49539;48.160;11.530;2023-08-31T00:21:40;2.65;;;1.70;;
55148;SDS011;49539;48.160;11.530;2023-08-31T00:24:06;4.95;;;2.25;;
55148;SDS011;49539;48.160;11.530;2023-08-31T00:26:32;2.10;;;1.38;;
55148;SDS011;49539;48.160;11.530;2023-08-31T00:29:00;2.22;;;1.42;;
55148;SDS011;49539;48.160;11.530;2023-08-31T00:31:26;2.50;;;1.30;;
55148;SDS011;49539;48.160;11.530;2023-08-31T00:33:52;2.45;;;1.50;;
55148;SDS011;49539;48.160;11.530;2023-08-31T00:36:18;4.15;;;1.88;;
55148;SDS011;49539;48.160;11.530;2023-08-31T00:38:43;4.80;;;1.90;;
55148;SDS011;49539;48.160;11.530;2023-08-31T00:41:08;2.35;;;1.60;;
55148;SDS011;49539;48.160;11.530;2023-08-31T00:43:34;4.03;;;1.95;;
55148;SDS011;49539;48.160;11.530;2023-08-31T00:46:00;2.60;;;1.60;;
55148;SDS011;49539;48.160;11.530;2023-08-31T00:48:33;2.30;;;1.83;;
55148;SDS011;49539;48.160;11.530;2023-08-31T00:51:02;3.28;;;2.25;;
55148;SDS011;49539;48.160;11.530;2023-08-31T00:53:27;2.67;;;1.55;;
55148;SDS011;49539;48.160;11.530;2023-08-31T00:55:54;2.67;;;1.42;;
55148;SDS011;49539;48.160;11.530;2023-08-31T00:58:19;3.22;;;2.03;;
55148;SDS011;49539;48.160;11.530;2023-08-31T01:03:32;2.30;;;1.70;;
55148;SDS011;49539;48.160;11.530;2023-08-31T01:06:07;5.13;;;1.75;;
55148;SDS011;49539;48.160;11.530;2023-08-31T01:13:44;2.95;;;1.73;;
55148;SDS011;49539;48.160;11.530;2023-08-31T01:16:10;2.58;;;1.65;;
55148;SDS011;49539;48.160;11.530;2023-08-31T01:18:36;3.10;;;1.85;;
55148;SDS011;49539;48.160;11.530;2023-08-31T01:23:54;2.93;;;1.83;;
55148;SDS011;49539;48.160;11.530;2023-08-31T01:26:20;3.67;;;1.92;;
55148;SDS011;49539;48.160;11.530;2023-08-31T01:28:51;3.38;;;2.00;;
55148;SDS011;49539;48.160;11.530;2023-08-31T01:31:17;4.07;;;1.80;;
55148;SDS011;49539;48.160;11.530;2023-08-31T01:33:43;3.22;;;2.20;;
55148;SDS011;49539;48.160;11.530;2023-08-31T01:36:12;3.00;;;1.73;;
55148;SDS011;49539;48.160;11.530;2023-08-31T01:38:39;2.65;;;1.77;;
55148;SDS011;49539;48.160;11.530;2023-08-31T01:41:10;2.70;;;1.70;;
55148;SDS011;49539;48.160;11.530;2023-08-31T01:43:36;4.13;;;2.00;;
55148;SDS011;49539;48.160;11.530;2023-08-31T01:46:02;2.80;;;1.98;;
55148;SDS011;49539;48.160;11.530;2023-08-31T01:48:28;2.65;;;1.80;;
55148;SDS011;49539;48.160;11.530;2023-08-31T01:50:53;3.25;;;2.35;;
55148;SDS011;49539;48.160;11.530;2023-08-31T01:53:19;3.88;;;2.33;;
55148;SDS011;49539;48.160;11.530;2023-08-31T01:55:44;2.93;;;1.70;;
55148;SDS011;49539;48.160;11.530;2023-08-31T01:58:09;3.97;;;2.00;;
55148;SDS011;49539;48.160;11.530;2023-08-31T02:00:34;3.17;;;1.98;;
55148;SDS011;49539;48.160;11.530;2023-08-31T02:03:01;2.95;;;1.60;;
55148;SDS011;49539;48.160;11.530;2023-08-31T02:05:26;3.17;;;1.83;;
55148;SDS011;49539;48.160;11.530;2023-08-31T02:07:51;4.07;;;2.10;;
55148;SDS011;49539;48.160;11.530;2023-08-31T02:10:17;3.20;;;2.00;;
55148;SDS011;49539;48.160;11.530;2023-08-31T02:12:42;4.90;;;2.20;;
55148;SDS011;49539;48.160;11.530;2023-08-31T02:15:07;2.78;;;1.85;;
55148;SDS011;49539;48.160;11.530;2023-08-31T02:17:36;3.67;;;1.95;;
55148;SDS011;49539;48.160;11.530;2023-08-31T02:20:02;4.57;;;2.10;;
55148;SDS011;49539;48.160;11.530;2023-08-31T02:22:33;2.65;;;1.98;;
55148;SDS011;49539;48.160;11.530;2023-08-31T02:24:59;5.05;;;1.85;;
55148;SDS011;49539;48.160;11.530;2023-08-31T02:27:24;3.50;;;1.92;;
55148;SDS011;49539;48.160;11.530;2023-08-31T02:29:49;3.53;;;2.13;;
55148;SDS011;49539;48.160;11.530;2023-08-31T02:32:15;10.52;;;2.60;;
55148;SDS011;49539;48.160;11.530;2023-08-31T02:34:40;3.63;;;2.00;;
55148;SDS011;49539;48.160;11.530;2023-08-31T02:37:05;3.90;;;2.40;;
55148;SDS011;49539;48.160;11.530;2023-08-31T02:39:34;4.03;;;2.10;;
55148;SDS011;49539;48.160;11.530;2023-08-31T02:41:59;4.13;;;2.30;;
55148;SDS011;49539;48.160;11.530;2023-08-31T02:44:24;5.28;;;2.65;;
55148;SDS011;49539;48.160;11.530;2023-08-31T02:46:50;4.38;;;2.60;;
55148;SDS011;49539;48.160;11.530;2023-08-31T02:49:19;6.18;;;3.08;;
55148;SDS011;49539;48.160;11.530;2023-08-31T02:51:47;5.10;;;3.20;;
55148;SDS011;49539;48.160;11.530;2023-08-31T02:54:17;5.20;;;3.15;;
55148;SDS011;49539;48.160;11.530;2023-08-31T02:56:52;4.55;;;3.00;;
55148;SDS011;49539;48.160;11.530;2023-08-31T02:59:22;5.28;;;3.20;;
55148;SDS011;49539;48.160;11.530;2023-08-31T03:02:23;5.18;;;3.30;;
55148;SDS011;49539;48.160;11.530;2023-08-31T03:04:56;6.50;;;3.60;;
55148;SDS011;49539;48.160;11.530;2023-08-31T03:07:24;5.43;;;3.13;;
55148;SDS011;49539;48.160;11.530;2023-08-31T03:09:52;5.97;;;4.13;;
55148;SDS011;49539;48.160;11.530;2023-08-31T03:12:28;5.53;;;3.65;;
55148;SDS011;49539;48.160;11.530;2023-08-31T03:14:59;6.43;;;4.05;;
55148;SDS011;49539;48.160;11.530;2023-08-31T03:17:36;7.13;;;4.13;;
55148;SDS011;49539;48.160;11.530;2023-08-31T03:20:30;6.35;;;4.07;;
55148;SDS011;49539;48.160;11.530;2023-08-31T03:22:58;5.97;;;3.70;;
55148;SDS011;49539;48.160;11.530;2023-08-31T03:25:42;6.72;;;3.50;;
55148;SDS011;49539;48.160;11.530;2023-08-31T03:28:17;4.75;;;3.13;;
55148;SDS011;49539;48.160;11.530;2023-08-31T03:30:53;6.80;;;3.70;;
55148;SDS011;49539;48.160;11.530;2023-08-31T03:33:26;5.65;;;3.42;;
55148;SDS011;49539;48.160;11.530;2023-08-31T03:35:52;4.97;;;2.85;;
55148;SDS011;49539;48.160;11.530;2023-08-31T03:38:23;4.45;;;2.83;;
55148;SDS011;49539;48.160;11.530;2023-08-31T03:40:54;5.55;;;2.53;;
55148;SDS011;49539;48.160;11.530;2023-08-31T03:43:25;7.10;;;3.28;;
55148;SDS011;49539;48.160;11.530;2023-08-31T03:45:56;4.95;;;2.78;;
55148;SDS011;49539;48.160;11.530;2023-08-31T03:48:25;3.65;;;2.35;;
55148;SDS011;49539;48.160;11.530;2023-08-31T03:50:56;4.32;;;2.78;;
55148;SDS011;49539;48.160;11.530;2023-08-31T03:53:27;3.80;;;2.63;;
55148;SDS011;49539;48.160;11.530;2023-08-31T03:55:55;12.70;;;3.13;;
55148;SDS011;49539;48.160;11.530;2023-08-31T03:58:21;5.38;;;3.03;;
55148;SDS011;49539;48.160;11.530;2023-08-31T04:00:49;5.85;;;2.33;;
55148;SDS011;49539;48.160;11.530;2023-08-31T04:03:26;7.35;;;3.00;;
55148;SDS011;49539;48.160;11.530;2023-08-31T04:05:57;4.35;;;2.58;;
55148;SDS011;49539;48.160;11.530;2023-08-31T04:08:27;5.40;;;2.30;;
55148;SDS011;49539;48.160;11.530;2023-08-31T04:10:58;3.85;;;2.42;;
55148;SDS011;49539;48.160;11.530;2023-08-31T04:13:29;4.13;;;2.70;;
55148;SDS011;49539;48.160;11.530;2023-08-31T04:16:04;6.22;;;2.85;;
55148;SDS011;49539;48.160;11.530;2023-08-31T04:18:33;3.28;;;2.28;;
55148;SDS011;49539;48.160;11.530;2023-08-31T04:20:59;3.38;;;2.40;;
55148;SDS011;49539;48.160;11.530;2023-08-31T04:23:27;6.22;;;2.80;;
55148;SDS011;49539;48.160;11.530;2023-08-31T04:25:54;3.50;;;2.30;;
55148;SDS011;49539;48.160;11.530;2023-08-31T04:28:21;5.70;;;3.10;;
55148;SDS011;49539;48.160;11.530;2023-08-31T04:30:49;6.03;;;2.95;;
55148;SDS011;49539;48.160;11.530;2023-08-31T04:33:18;4.07;;;2.72;;
55148;SDS011;49539;48.160;11.530;2023-08-31T04:35:47;4.60;;;2.78;;
55148;SDS011;49539;48.160;11.530;2023-08-31T04:38:24;5.37;;;2.83;;
55148;SDS011;49539;48.160;11.530;2023-08-31T04:40:57;4.57;;;2.47;;
55148;SDS011;49539;48.160;11.530;2023-08-31T04:43:25;4.75;;;2.80;;
55148;SDS011;49539;48.160;11.530;2023-08-31T04:45:53;4.43;;;2.72;;
55148;SDS011;49539;48.160;11.530;2023-08-31T04:48:22;4.53;;;2.75;;
55148;SDS011;49539;48.160;11.530;2023-08-31T04:50:48;4.55;;;2.95;;
55148;SDS011;49539;48.160;11.530;2023-08-31T04:53:16;4.25;;;2.67;;
55148;SDS011;49539;48.160;11.530;2023-08-31T04:55:41;4.05;;;2.30;;
55148;SDS011;49539;48.160;11.530;2023-08-31T04:58:07;8.45;;;3.47;;
55148;SDS011;49539;48.160;11.530;2023-08-31T05:00:35;6.20;;;3.20;;
55148;SDS011;49539;48.160;11.530;2023-08-31T05:03:13;4.70;;;2.53;;
55148;SDS011;49539;48.160;11.530;2023-08-31T05:05:44;4.53;;;2.78;;
55148;SDS011;49539;48.160;11.530;2023-08-31T05:08:12;3.83;;;2.40;;
55148;SDS011;49539;48.160;11.530;2023-08-31T05:10:40;5.20;;;3.08;;
55148;SDS011;49539;48.160;11.530;2023-08-31T05:16:12;4.22;;;2.40;;
55148;SDS011;49539;48.160;11.530;2023-08-31T05:21:03;4.07;;;2.63;;
55148;SDS011;49539;48.160;11.530;2023-08-31T05:23:29;3.72;;;2.40;;
55148;SDS011;49539;48.160;11.530;2023-08-31T05:25:57;6.03;;;2.55;;
55148;SDS011;49539;48.160;11.530;2023-08-31T05:28:23;3.53;;;2.40;;
55148;SDS011;49539;48.160;11.530;2023-08-31T05:31:06;4.82;;;2.25;;
55148;SDS011;49539;48.160;11.530;2023-08-31T05:33:37;5.68;;;2.05;;
55148;SDS011;49539;48.160;11.530;2023-08-31T05:36:05;3.72;;;2.30;;
55148;SDS011;49539;48.160;11.530;2023-08-31T05:38:34;3.47;;;2.08;;
55148;SDS011;49539;48.160;11.530;2023-08-31T05:41:05;4.70;;;2.63;;
55148;SDS011;49539;48.160;11.530;2023-08-31T05:43:32;4.00;;;2.22;;
55148;SDS011;49539;48.160;11.530;2023-08-31T05:46:00;6.63;;;2.30;;
55148;SDS011;49539;48.160;11.530;2023-08-31T05:48:25;3.60;;;1.92;;
55148;SDS011;49539;48.160;11.530;2023-08-31T05:50:50;5.22;;;2.28;;
55148;SDS011;49539;48.160;11.530;2023-08-31T05:53:16;4.43;;;2.25;;
55148;SDS011;49539;48.160;11.530;2023-08-31T05:55:44;5.78;;;2.55;;
55148;SDS011;49539;48.160;11.530;2023-08-31T05:58:13;3.53;;;2.15;;
55148;SDS011;49539;48.160;11.530;2023-08-31T06:00:38;3.22;;;1.75;;
55148;SDS011;49539;48.160;11.530;2023-08-31T06:03:04;3.65;;;2.20;;
55148;SDS011;49539;48.160;11.530;2023-08-31T06:05:36;3.70;;;2.45;;
55148;SDS011;49539;48.160;11.530;2023-08-31T06:08:01;5.90;;;2.60;;
55148;SDS011;49539;48.160;11.530;2023-08-31T06:10:29;5.03;;;2.38;;
55148;SDS011;49539;48.160;11.530;2023-08-31T06:12:57;3.97;;;2.00;;
55148;SDS011;49539;48.160;11.530;2023-08-31T06:15:31;4.13;;;2.45;;
55148;SDS011;49539;48.160;11.530;2023-08-31T06:18:00;4.25;;;2.75;;
55148;SDS011;49539;48.160;11.530;2023-08-31T06:20:25;4.67;;;2.83;;
55148;SDS011;49539;48.160;11.530;2023-08-31T06:22:50;5.10;;;2.40;;
55148;SDS011;49539;48.160;11.530;2023-08-31T06:25:16;4.78;;;2.33;;
55148;SDS011;49539;48.160;11.530;2023-08-31T06:27:43;4.13;;;2.53;;
55148;SDS011;49539;48.160;11.530;2023-08-31T06:30:09;5.20;;;2.78;;
55148;SDS011;49539;48.160;11.530;2023-08-31T06:32:37;4.20;;;2.30;;
55148;SDS011;49539;48.160;11.530;2023-08-31T06:35:02;5.13;;;2.63;;
55148;SDS011;49539;48.160;11.530;2023-08-31T06:37:27;3.95;;;2.63;;
55148;SDS011;49539;48.160;11.530;2023-08-31T06:39:52;3.13;;;1.83;;
55148;SDS011;49539;48.160;11.530;2023-08-31T06:42:18;3.90;;;2.60;;
55148;SDS011;49539;48.160;11.530;2023-08-31T06:44:43;3.95;;;2.50;;
55148;SDS011;49539;48.160;11.530;2023-08-31T06:47:08;3.93;;;2.17;;
55148;SDS011;49539;48.160;11.530;2023-08-31T06:49:35;4.53;;;2.63;;
55148;SDS011;49539;48.160;11.530;2023-08-31T06:52:00;4.68;;;2.40;;
55148;SDS011;49539;48.160;11.530;2023-08-31T06:54:27;5.10;;;2.67;;
55148;SDS011;49539;48.160;11.530;2023-08-31T06:56:52;3.80;;;2.60;;
55148;SDS011;49539;48.160;11.530;2023-08-31T06:59:18;4.85;;;2.15;;
55148;SDS011;49539;48.160;11.530;2023-08-31T07:01:43;6.68;;;2.75;;
55148;SDS011;49539;48.160;11.530;2023-08-31T07:04:08;3.20;;;2.27;;
55148;SDS011;49539;48.160;11.530;2023-08-31T07:06:34;4.85;;;2.22;;
55148;SDS011;49539;48.160;11.530;2023-08-31T07:09:00;5.22;;;2.33;;
55148;SDS011;49539;48.160;11.530;2023-08-31T07:11:25;3.53;;;2.17;;
55148;SDS011;49539;48.160;11.530;2023-08-31T07:13:51;3.60;;;2.47;;
55148;SDS011;49539;48.160;11.530;2023-08-31T07:16:16;3.28;;;2.25;;
55148;SDS011;49539;48.160;11.530;2023-08-31T07:18:42;3.22;;;2.10;;
55148;SDS011;49539;48.160;11.530;2023-08-31T07:21:07;5.60;;;1.83;;
55148;SDS011;49539;48.160;11.530;2023-08-31T07:23:33;9.07;;;1.75;;
55148;SDS011;49539;48.160;11.530;2023-08-31T07:25:58;3.33;;;1.98;;
55148;SDS011;49539;48.160;11.530;2023-08-31T07:28:25;3.83;;;2.00;;
55148;SDS011;49539;48.160;11.530;2023-08-31T07:31:00;7.03;;;2.10;;
55148;SDS011;49539;48.160;11.530;2023-08-31T07:33:25;3.65;;;1.90;;
55148;SDS011;49539;48.160;11.530;2023-08-31T07:35:50;3.00;;;1.83;;
55148;SDS011;49539;48.160;11.530;2023-08-31T07:38:16;2.97;;;1.80;;
55148;SDS011;49539;48.160;11.530;2023-08-31T07:40:41;2.92;;;1.80;;
55148;SDS011;49539;48.160;11.530;2023-08-31T07:43:07;3.90;;;1.65;;
55148;SDS011;49539;48.160;11.530;2023-08-31T07:45:32;3.43;;;1.70;;
55148;SDS011;49539;48.160;11.530;2023-08-31T07:47:57;2.85;;;1.65;;
55148;SDS011;49539;48.160;11.530;2023-08-31T07:50:22;3.33;;;1.63;;
55148;SDS011;49539;48.160;11.530;2023-08-31T07:52:47;2.43;;;1.80;;
55148;SDS011;49539;48.160;11.530;2023-08-31T07:55:13;3.90;;;1.83;;
55148;SDS011;49539;48.160;11.530;2023-08-31T07:57:39;5.97;;;2.33;;
55148;SDS011;49539;48.160;11.530;2023-08-31T08:00:07;4.80;;;2.60;;
55148;SDS011;49539;48.160;11.530;2023-08-31T08:02:32;3.15;;;1.40;;
55148;SDS011;49539;48.160;11.530;2023-08-31T08:04:57;3.28;;;2.08;;
55148;SDS011;49539;48.160;11.530;2023-08-31T08:07:23;3.80;;;2.00;;
55148;SDS011;49539;48.160;11.530;2023-08-31T08:09:50;2.90;;;1.70;;
55148;SDS011;49539;48.160;11.530;2023-08-31T08:12:16;3.15;;;1.75;;
55148;SDS011;49539;48.160;11.530;2023-08-31T08:14:41;4.40;;;1.83;;
55148;SDS011;49539;48.160;11.530;2023-08-31T08:17:06;3.20;;;1.90;;
55148;SDS011;49539;48.160;11.530;2023-08-31T08:19:31;6.97;;;1.77;;
55148;SDS011;49539;48.160;11.530;2023-08-31T08:21:57;5.10;;;1.50;;
55148;SDS011;49539;48.160;11.530;2023-08-31T08:24:22;5.90;;;2.07;;
55148;SDS011;49539;48.160;11.530;2023-08-31T08:26:47;4.13;;;1.80;;
55148;SDS011;49539;48.160;11.530;2023-08-31T08:29:13;4.03;;;1.77;;
55148;SDS011;49539;48.160;11.530;2023-08-31T08:31:38;4.63;;;1.85;;
55148;SDS011;49539;48.160;11.530;2023-08-31T08:34:03;5.00;;;2.05;;
55148;SDS011;49539;48.160;11.530;2023-08-31T08:36:29;3.92;;;2.03;;
55148;SDS011;49539;48.160;11.530;2023-08-31T08:38:54;8.20;;;1.90;;
55148;SDS011;49539;48.160;11.530;2023-08-31T08:41:21;5.35;;;1.92;;
55148;SDS011;49539;48.160;11.530;2023-08-31T08:43:47;5.32;;;2.08;;
55148;SDS011;49539;48.160;11.530;2023-08-31T08:46:15;2.70;;;1.85;;
55148;SDS011;49539;48.160;11.530;2023-08-31T08:48:40;3.90;;;1.70;;
55148;SDS011;49539;48.160;11.530;2023-08-31T08:51:06;2.88;;;1.77;;
55148;SDS011;49539;48.160;11.530;2023-08-31T08:53:33;4.20;;;1.52;;
55148;SDS011;49539;48.160;11.530;2023-08-31T08:55:58;4.35;;;1.67;;
55148;SDS011;49539;48.160;11.530;2023-08-31T08:58:23;2.67;;;1.65;;
55148;SDS011;49539;48.160;11.530;2023-08-31T09:00:49;7.50;;;2.17;;
55148;SDS011;49539;48.160;11.530;2023-08-31T09:03:14;1.75;;;1.10;;
55148;SDS011;49539;48.160;11.530;2023-08-31T09:05:40;5.63;;;1.77;;
55148;SDS011;49539;48.160;11.530;2023-08-31T09:08:06;3.22;;;1.92;;
55148;SDS011;49539;48.160;11.530;2023-08-31T09:10:39;5.75;;;1.63;;
55148;SDS011;49539;48.160;11.530;2023-08-31T09:13:06;2.35;;;1.40;;
55148;SDS011;49539;48.160;11.530;2023-08-31T09:15:39;2.67;;;1.63;;
55148;SDS011;49539;48.160;11.530;2023-08-31T09:18:30;4.35;;;1.90;;
55148;SDS011;49539;48.160;11.530;2023-08-31T09:20:55;6.47;;;1.80;;
55148;SDS011;49539;48.160;11.530;2023-08-31T09:23:24;2.40;;;1.50;;
55148;SDS011;49539;48.160;11.530;2023-08-31T09:25:50;2.97;;;1.63;;
55148;SDS011;49539;48.160;11.530;2023-08-31T09:28:18;2.45;;;1.38;;
55148;SDS011;49539;48.160;11.530;2023-08-31T09:30:45;4.25;;;1.63;;
55148;SDS011;49539;48.160;11.530;2023-08-31T09:33:14;3.10;;;1.70;;
55148;SDS011;49539;48.160;11.530;2023-08-31T09:35:39;3.90;;;1.85;;
55148;SDS011;49539;48.160;11.530;2023-08-31T09:38:08;3.85;;;1.38;;
55148;SDS011;49539;48.160;11.530;2023-08-31T09:40:34;3.70;;;1.50;;
55148;SDS011;49539;48.160;11.530;2023-08-31T09:42:59;3.05;;;1.55;;
55148;SDS011;49539;48.160;11.530;2023-08-31T09:45:32;2.75;;;1.48;;
55148;SDS011;49539;48.160;11.530;2023-08-31T09:47:58;3.42;;;1.48;;
55148;SDS011;49539;48.160;11.530;2023-08-31T09:50:24;3.90;;;1.50;;
55148;SDS011;49539;48.160;11.530;2023-08-31T09:52:50;2.88;;;1.55;;
55148;SDS011;49539;48.160;11.530;2023-08-31T09:55:19;3.67;;;1.30;;
55148;SDS011;49539;48.160;11.530;2023-08-31T09:57:45;2.55;;;1.42;;
55148;SDS011;49539;48.160;11.530;2023-08-31T10:00:10;2.83;;;1.10;;
55148;SDS011;49539;48.160;11.530;2023-08-31T10:02:43;3.00;;;1.30;;
55148;SDS011;49539;48.160;11.530;2023-08-31T10:05:09;4.55;;;1.58;;
55148;SDS011;49539;48.160;11.530;2023-08-31T10:07:34;2.42;;;1.25;;
55148;SDS011;49539;48.160;11.530;2023-08-31T10:10:00;2.15;;;1.27;;
55148;SDS011;49539;48.160;11.530;2023-08-31T10:12:26;1.85;;;1.05;;
55148;SDS011;49539;48.160;11.530;2023-08-31T10:14:51;3.95;;;1.33;;
55148;SDS011;49539;48.160;11.530;2023-08-31T10:17:17;3.67;;;1.30;;
55148;SDS011;49539;48.160;11.530;2023-08-31T10:19:43;2.47;;;1.35;;
55148;SDS011;49539;48.160;11.530;2023-08-31T10:22:09;2.63;;;1.35;;
55148;SDS011;49539;48.160;11.530;2023-08-31T10:27:18;2.60;;;1.35;;
55148;SDS011;49539;48.160;11.530;2023-08-31T10:29:45;7.18;;;1.83;;
55148;SDS011;49539;48.160;11.530;2023-08-31T10:32:11;1.65;;;1.10;;
55148;SDS011;49539;48.160;11.530;2023-08-31T10:34:41;3.60;;;1.50;;
55148;SDS011;49539;48.160;11.530;2023-08-31T10:37:19;3.77;;;1.43;;
55148;SDS011;49539;48.160;11.530;2023-08-31T10:39:44;3.42;;;1.40;;
55148;SDS011;49539;48.160;11.530;2023-08-31T10:42:09;4.20;;;1.50;;
55148;SDS011;49539;48.160;11.530;2023-08-31T10:44:37;2.58;;;1.20;;
55148;SDS011;49539;48.160;11.530;2023-08-31T10:47:05;3.07;;;1.47;;
55148;SDS011;49539;48.160;11.530;2023-08-31T10:49:30;3.92;;;1.25;;
55148;SDS011;49539;48.160;11.530;2023-08-31T10:54:39;2.67;;;1.20;;
55148;SDS011;49539;48.160;11.530;2023-08-31T10:57:05;2.22;;;1.50;;
55148;SDS011;49539;48.160;11.530;2023-08-31T11:02:07;3.88;;;1.90;;
55148;SDS011;49539;48.160;11.530;2023-08-31T11:04:52;2.20;;;1.40;;
55148;SDS011;49539;48.160;11.530;2023-08-31T11:07:18;7.53;;;1.58;;
55148;SDS011;49539;48.160;11.530;2023-08-31T11:09:44;8.75;;;2.10;;
55148;SDS011;49539;48.160;11.530;2023-08-31T11:12:09;5.90;;;2.55;;
55148;SDS011;49539;48.160;11.530;2023-08-31T11:14:35;5.78;;;2.03;;
55148;SDS011;49539;48.160;11.530;2023-08-31T11:17:00;4.70;;;1.80;;
55148;SDS011;49539;48.160;11.530;2023-08-31T11:19:26;4.50;;;1.77;;
55148;SDS011;49539;48.160;11.530;2023-08-31T11:21:52;2.85;;;1.50;;
55148;SDS011;49539;48.160;11.530;2023-08-31T11:24:18;5.40;;;2.10;;
55148;SDS011;49539;48.160;11.530;2023-08-31T11:26:47;3.67;;;2.00;;
55148;SDS011;49539;48.160;11.530;2023-08-31T11:29:12;4.10;;;1.60;;
55148;SDS011;49539;48.160;11.530;2023-08-31T11:31:38;8.83;;;2.20;;
55148;SDS011;49539;48.160;11.530;2023-08-31T11:34:06;4.07;;;1.55;;
55148;SDS011;49539;48.160;11.530;2023-08-31T11:36:32;4.43;;;1.80;;
55148;SDS011;49539;48.160;11.530;2023-08-31T11:38:57;3.63;;;1.73;;
55148;SDS011;49539;48.160;11.530;2023-08-31T11:41:23;4.15;;;2.00;;
55148;SDS011;49539;48.160;11.530;2023-08-31T11:43:48;3.90;;;1.98;;
55148;SDS011;49539;48.160;11.530;2023-08-31T11:46:14;8.68;;;2.30;;
55148;SDS011;49539;48.160;11.530;2023-08-31T11:48:41;4.20;;;1.58;;
55148;SDS011;49539;48.160;11.530;2023-08-31T11:51:07;5.95;;;2.20;;
55148;SDS011;49539;48.160;11.530;2023-08-31T11:53:32;4.10;;;2.00;;
55148;SDS011;49539;48.160;11.530;2023-08-31T11:56:01;5.18;;;2.17;;
55148;SDS011;49539;48.160;11.530;2023-08-31T11:58:26;4.68;;;2.13;;
55148;SDS011;49539;48.160;11.530;2023-08-31T12:00:58;4.20;;;1.85;;
55148;SDS011;49539;48.160;11.530;2023-08-31T12:03:24;6.75;;;2.00;;
55148;SDS011;49539;48.160;11.530;2023-08-31T12:05:51;4.03;;;2.05;;
55148;SDS011;49539;48.160;11.530;2023-08-31T12:08:16;7.78;;;2.13;;
55148;SDS011;49539;48.160;11.530;2023-08-31T12:10:48;3.35;;;1.55;;
55148;SDS011;49539;48.160;11.530;2023-08-31T12:13:13;2.90;;;1.40;;
55148;SDS011;49539;48.160;11.530;2023-08-31T12:15:39;4.40;;;1.70;;
55148;SDS011;49539;48.160;11.530;2023-08-31T12:18:10;4.18;;;2.47;;
55148;SDS011;49539;48.160;11.530;2023-08-31T12:23:10;4.88;;;1.48;;
55148;SDS011;49539;48.160;11.530;2023-08-31T12:25:35;9.57;;;1.37;;
55148;SDS011;49539;48.160;11.530;2023-08-31T12:28:00;11.15;;;1.75;;
55148;SDS011;49539;48.160;11.530;2023-08-31T12:30:26;3.05;;;1.23;;
55148;SDS011;49539;48.160;11.530;2023-08-31T12:32:51;6.53;;;1.63;;
55148;SDS011;49539;48.160;11.530;2023-08-31T12:35:17;4.00;;;1.10;;
55148;SDS011;49539;48.160;11.530;2023-08-31T12:37:42;2.58;;;1.33;;
55148;SDS011;49539;48.160;11.530;2023-08-31T12:40:10;3.87;;;1.50;;
55148;SDS011;49539;48.160;11.530;2023-08-31T12:42:36;2.03;;;1.25;;
55148;SDS011;49539;48.160;11.530;2023-08-31T12:45:01;4.43;;;1.58;;
55148;SDS011;49539;48.160;11.530;2023-08-31T12:47:30;4.32;;;1.73;;
55148;SDS011;49539;48.160;11.530;2023-08-31T12:49:55;3.30;;;1.60;;
55148;SDS011;49539;48.160;11.530;2023-08-31T12:52:21;3.20;;;1.58;;
55148;SDS011;49539;48.160;11.530;2023-08-31T12:54:46;5.23;;;1.37;;
55148;SDS011;49539;48.160;11.530;2023-08-31T12:57:11;4.53;;;1.70;;
55148;SDS011;49539;48.160;11.530;2023-08-31T12:59:37;4.25;;;1.85;;
55148;SDS011;49539;48.160;11.530;2023-08-31T13:02:02;2.73;;;1.73;;
55148;SDS011;49539;48.160;11.530;2023-08-31T13:04:32;2.22;;;1.58;;
55148;SDS011;49539;48.160;11.530;2023-08-31T13:06:57;2.03;;;1.30;;
55148;SDS011;49539;48.160;11.530;2023-08-31T13:09:23;4.00;;;1.43;;
55148;SDS011;49539;48.160;11.530;2023-08-31T13:11:48;3.63;;;1.80;;
55148;SDS011;49539;48.160;11.530;2023-08-31T13:14:14;2.72;;;1.42;;
55148;SDS011;49539;48.160;11.530;2023-08-31T13:16:40;4.70;;;1.60;;
55148;SDS011;49539;48.160;11.530;2023-08-31T13:19:05;3.97;;;1.75;;
55148;SDS011;49539;48.160;11.530;2023-08-31T13:21:30;2.17;;;1.10;;
55148;SDS011;49539;48.160;11.530;2023-08-31T13:23:55;3.10;;;1.33;;
55148;SDS011;49539;48.160;11.530;2023-08-31T13:26:21;5.63;;;1.83;;
55148;SDS011;49539;48.160;11.530;2023-08-31T13:28:46;3.47;;;1.33;;
55148;SDS011;49539;48.160;11.530;2023-08-31T13:31:11;2.90;;;1.33;;
55148;SDS011;49539;48.160;11.530;2023-08-31T13:33:36;2.35;;;1.05;;
55148;SDS011;49539;48.160;11.530;2023-08-31T13:36:02;5.10;;;1.40;;
55148;SDS011;49539;48.160;11.530;2023-08-31T13:38:28;2.28;;;1.30;;
55148;SDS011;49539;48.160;11.530;2023-08-31T13:40:56;4.63;;;1.33;;
55148;SDS011;49539;48.160;11.530;2023-08-31T13:43:22;2.40;;;1.38;;
55148;SDS011;49539;48.160;11.530;2023-08-31T13:45:47;3.88;;;1.13;;
55148;SDS011;49539;48.160;11.530;2023-08-31T13:48:14;5.40;;;1.75;;
55148;SDS011;49539;48.160;11.530;2023-08-31T13:50:40;2.30;;;1.25;;
55148;SDS011;49539;48.160;11.530;2023-08-31T13:53:05;3.08;;;1.30;;
55148;SDS011;49539;48.160;11.530;2023-08-31T13:55:30;4.22;;;1.63;;
55148;SDS011;49539;48.160;11.530;2023-08-31T13:58:03;3.88;;;1.63;;
55148;SDS011;49539;48.160;11.530;2023-08-31T14:00:28;5.50;;;1.58;;
55148;SDS011;49539;48.160;11.530;2023-08-31T14:02:53;5.03;;;1.40;;
55148;SDS011;49539;48.160;11.530;2023-08-31T14:05:19;1.90;;;1.15;;
55148;SDS011;49539;48.160;11.530;2023-08-31T14:07:44;2.80;;;1.17;;
55148;SDS011;49539;48.160;11.530;2023-08-31T14:10:10;3.57;;;1.47;;
55148;SDS011;49539;48.160;11.530;2023-08-31T14:12:35;4.25;;;1.50;;
55148;SDS011;49539;48.160;11.530;2023-08-31T14:15:01;2.97;;;1.13;;
55148;SDS011;49539;48.160;11.530;2023-08-31T14:17:28;5.07;;;2.13;;
55148;SDS011;49539;48.160;11.530;2023-08-31T14:19:54;4.50;;;1.50;;
55148;SDS011;49539;48.160;11.530;2023-08-31T14:22:19;3.13;;;1.30;;
55148;SDS011;49539;48.160;11.530;2023-08-31T14:24:45;3.03;;;1.13;;
55148;SDS011;49539;48.160;11.530;2023-08-31T14:27:10;3.30;;;1.15;;
55148;SDS011;49539;48.160;11.530;2023-08-31T14:29:36;5.37;;;1.57;;
55148;SDS011;49539;48.160;11.530;2023-08-31T14:32:01;3.92;;;1.50;;
55148;SDS011;49539;48.160;11.530;2023-08-31T14:34:27;3.47;;;1.60;;
55148;SDS011;49539;48.160;11.530;2023-08-31T14:36:53;3.67;;;1.15;;
55148;SDS011;49539;48.160;11.530;2023-08-31T14:39:22;3.17;;;1.50;;
55148;SDS011;49539;48.160;11.530;2023-08-31T14:41:56;4.50;;;1.50;;
55148;SDS011;49539;48.160;11.530;2023-08-31T14:44:25;2.70;;;1.60;;
55148;SDS011;49539;48.160;11.530;2023-08-31T14:46:51;2.53;;;1.27;;
55148;SDS011;49539;48.160;11.530;2023-08-31T14:49:16;3.25;;;1.40;;
55148;SDS011;49539;48.160;11.530;2023-08-31T14:51:41;4.90;;;1.53;;
55148;SDS011;49539;48.160;11.530;2023-08-31T14:54:07;3.53;;;1.27;;
55148;SDS011;49539;48.160;11.530;2023-08-31T14:56:41;3.58;;;1.45;;
55148;SDS011;49539;48.160;11.530;2023-08-31T14:59:07;3.10;;;1.38;;
55148;SDS011;49539;48.160;11.530;2023-08-31T15:01:35;4.20;;;1.52;;